ADDS TAF Data INFO
IDs: Format: Raw Decoded Include METARs

Data at: 1533 UTC 18 Jan 2018

KSDL 181453Z 00000KT 10SM CLR 07/01 A3019 RMK AO2 SLP214 T00670006 53012

KSDL 181120Z 1812/1912 VRB03KT P6SM SCT250